createdAt,value
2018-01-06T00:02:05.281Z,6.20
2018-01-06T00:04:33.346Z,6.00
2018-01-06T00:07:02.187Z,6.30
2018-01-06T00:09:30.544Z,6.30
2018-01-06T00:11:58.610Z,5.80
2018-01-06T00:14:26.680Z,6.20
2018-01-06T00:16:54.780Z,6.10
2018-01-06T00:19:22.850Z,5.90
2018-01-06T00:21:50.915Z,5.70
2018-01-06T00:24:19.001Z,5.70
2018-01-06T00:26:47.078Z,5.60
2018-01-06T00:29:15.134Z,5.70
2018-01-06T00:31:43.205Z,5.60
2018-01-06T00:34:11.275Z,5.70
2018-01-06T00:36:39.345Z,5.90
2018-01-06T00:39:07.407Z,6.10
2018-01-06T00:41:35.904Z,6.10
2018-01-06T00:44:04.790Z,6.30
2018-01-06T00:46:33.558Z,5.90
2018-01-06T00:49:01.851Z,5.70
2018-01-06T00:51:30.198Z,6.20
2018-01-06T00:53:58.255Z,6.60
2018-01-06T00:56:26.318Z,6.50
2018-01-06T00:58:54.404Z,6.10
2018-01-06T01:01:22.521Z,6.50
2018-01-06T01:03:50.581Z,6.50
2018-01-06T01:06:18.667Z,6.60
2018-01-06T01:08:46.739Z,6.60
2018-01-06T01:11:14.801Z,6.50
2018-01-06T01:13:42.995Z,6.70
2018-01-06T01:16:11.833Z,6.50
2018-01-06T01:18:39.890Z,6.80
2018-01-06T01:21:07.972Z,6.70
2018-01-06T01:23:36.075Z,6.90
2018-01-06T01:26:04.148Z,6.30
2018-01-06T01:28:32.214Z,6.50
2018-01-06T01:31:00.294Z,6.30
2018-01-06T01:33:28.370Z,6.50
2018-01-06T01:35:56.430Z,6.30
2018-01-06T01:38:24.511Z,6.10
2018-01-06T01:40:52.569Z,6.20
2018-01-06T01:43:21.141Z,6.20
2018-01-06T01:45:49.203Z,6.20
2018-01-06T01:48:17.300Z,6.20
2018-01-06T01:50:46.246Z,6.30
2018-01-06T01:53:14.315Z,6.10
2018-01-06T01:55:42.365Z,6.10
2018-01-06T01:58:10.504Z,6.30
2018-01-06T02:00:38.563Z,6.10
2018-01-06T02:03:06.617Z,6.30
2018-01-06T02:05:34.673Z,6.10
2018-01-06T02:08:02.753Z,6.10
2018-01-06T02:10:30.908Z,6.10
2018-01-06T02:12:59.651Z,6.10
2018-01-06T02:15:28.514Z,6.30
2018-01-06T02:17:57.366Z,6.20
2018-01-06T02:20:25.434Z,6.10
2018-01-06T02:22:53.507Z,6.10
2018-01-06T02:25:21.621Z,6.20
2018-01-06T02:27:49.682Z,6.00
2018-01-06T02:30:17.862Z,5.90
2018-01-06T02:32:45.931Z,5.80
2018-01-06T02:35:14.570Z,5.90
2018-01-06T02:37:42.626Z,5.80
2018-01-06T02:40:11.459Z,6.00
2018-01-06T02:42:39.522Z,6.20
2018-01-06T02:45:07.584Z,5.90
2018-01-06T02:47:35.671Z,5.90
2018-01-06T02:50:03.763Z,5.70
2018-01-06T02:52:31.832Z,5.90
2018-01-06T02:54:59.889Z,5.70
2018-01-06T02:57:27.954Z,6.10
2018-01-06T02:59:56.035Z,5.80
2018-01-06T03:02:24.091Z,5.90
2018-01-06T03:04:52.144Z,5.70
2018-01-06T03:07:20.461Z,5.60
2018-01-06T03:09:48.581Z,5.70
2018-01-06T03:12:16.638Z,5.70
2018-01-06T03:14:45.474Z,5.60
2018-01-06T03:17:13.530Z,5.70
2018-01-06T03:19:41.626Z,5.60
2018-01-06T03:22:09.691Z,5.80
2018-01-06T03:24:37.754Z,5.60
2018-01-06T03:27:06.622Z,5.60
2018-01-06T03:29:34.680Z,5.60
2018-01-06T03:32:03.334Z,5.80
2018-01-06T03:34:31.394Z,5.80
2018-01-06T03:36:59.745Z,5.60
2018-01-06T03:39:27.811Z,5.60
2018-01-06T03:41:55.910Z,5.50
2018-01-06T03:44:24.137Z,5.50
2018-01-06T03:46:52.192Z,5.70
2018-01-06T03:49:20.249Z,5.70
2018-01-06T03:51:49.098Z,5.70
2018-01-06T03:54:17.177Z,5.70
2018-01-06T03:56:45.245Z,5.30
2018-01-06T03:59:13.321Z,5.50
2018-01-06T04:01:41.377Z,5.30
2018-01-06T04:04:09.483Z,5.40
2018-01-06T04:06:38.355Z,5.50
2018-01-06T04:09:06.446Z,5.40
2018-01-06T04:11:34.506Z,5.40
2018-01-06T04:14:02.554Z,5.50
2018-01-06T04:16:30.626Z,5.70
2018-01-06T04:18:58.695Z,5.90
2018-01-06T04:21:27.254Z,5.80
2018-01-06T04:23:55.331Z,6.10
2018-01-06T04:26:23.401Z,5.70
2018-01-06T04:28:51.598Z,5.60
2018-01-06T04:31:19.662Z,5.40
2018-01-06T04:33:47.735Z,5.60
2018-01-06T04:36:15.800Z,5.00
2018-01-06T04:38:43.872Z,5.00
2018-01-06T04:41:12.357Z,5.40
2018-01-06T04:43:40.427Z,5.10
2018-01-06T04:46:08.491Z,5.00
2018-01-06T04:48:36.584Z,5.50
2018-01-06T04:51:04.645Z,4.90
2018-01-06T04:53:32.704Z,5.00
2018-01-06T04:56:00.772Z,5.50
2018-01-06T04:58:28.829Z,5.60
2018-01-06T05:00:56.906Z,5.60
2018-01-06T05:03:25.314Z,5.10
2018-01-06T05:05:53.469Z,5.00
2018-01-06T05:08:22.150Z,5.40
2018-01-06T05:10:50.182Z,5.30
2018-01-06T05:13:18.248Z,5.60
2018-01-06T05:15:46.335Z,6.00
2018-01-06T05:18:14.409Z,6.10
2018-01-06T05:20:42.579Z,5.80
2018-01-06T05:23:10.640Z,5.90
2018-01-06T05:25:38.692Z,5.90
2018-01-06T05:28:07.589Z,5.70
2018-01-06T05:30:35.850Z,5.60
2018-01-06T05:33:04.685Z,5.50
2018-01-06T05:35:32.744Z,5.30
2018-01-06T05:38:00.845Z,5.20
2018-01-06T05:40:28.906Z,5.40
2018-01-06T05:42:56.978Z,5.10
2018-01-06T05:45:25.054Z,5.00
2018-01-06T05:47:53.133Z,5.20
2018-01-06T05:50:21.199Z,4.90
2018-01-06T05:52:50.045Z,5.10
2018-01-06T05:55:18.155Z,5.20
2018-01-06T05:57:46.210Z,5.10
2018-01-06T06:00:14.307Z,5.20
2018-01-06T06:02:42.783Z,5.20
2018-01-06T06:05:10.849Z,5.30
2018-01-06T06:07:38.933Z,5.30
2018-01-06T06:10:06.990Z,5.10
2018-01-06T06:12:35.047Z,5.30
2018-01-06T06:15:03.109Z,5.30
2018-01-06T06:17:31.170Z,5.50
2018-01-06T06:19:59.228Z,5.60
2018-01-06T06:22:27.355Z,5.30
2018-01-06T06:24:55.423Z,5.30
2018-01-06T06:27:24.063Z,5.40
2018-01-06T06:29:52.163Z,5.50
2018-01-06T06:32:20.218Z,5.40
2018-01-06T06:34:48.282Z,5.30
2018-01-06T06:37:17.491Z,5.30
2018-01-06T06:39:45.543Z,5.50
2018-01-06T06:42:13.610Z,5.50
2018-01-06T06:44:41.675Z,5.40
2018-01-06T06:47:09.795Z,5.40
2018-01-06T06:49:37.965Z,5.50
2018-01-06T06:52:06.028Z,5.40
2018-01-06T06:54:34.616Z,5.40
2018-01-06T06:57:02.676Z,5.30
2018-01-06T06:59:30.745Z,5.30
2018-01-06T07:01:58.797Z,5.10
2018-01-06T07:04:26.899Z,5.20
2018-01-06T07:06:54.966Z,5.40
2018-01-06T07:09:23.023Z,6.00
2018-01-06T07:11:51.095Z,5.70
2018-01-06T07:14:19.150Z,5.30
2018-01-06T07:16:47.223Z,5.10
2018-01-06T07:19:15.285Z,5.30
2018-01-06T07:21:43.356Z,5.60
2018-01-06T07:24:11.462Z,5.20
2018-01-06T07:26:39.538Z,5.20
2018-01-06T07:29:07.630Z,5.10
2018-01-06T07:31:36.479Z,4.90
2018-01-06T07:34:04.565Z,5.30
2018-01-06T07:36:32.625Z,4.90
2018-01-06T07:39:00.807Z,5.30
2018-01-06T07:41:28.890Z,5.40
2018-01-06T07:43:57.026Z,5.50
2018-01-06T07:46:25.139Z,5.40
2018-01-06T07:48:53.213Z,5.40
2018-01-06T07:51:21.267Z,5.60
2018-01-06T07:53:50.051Z,5.70
2018-01-06T07:56:18.221Z,5.50
2018-01-06T07:58:46.299Z,5.40
2018-01-06T08:01:14.375Z,5.30
2018-01-06T08:03:42.443Z,5.60
2018-01-06T08:06:10.505Z,5.50
2018-01-06T08:08:38.589Z,5.40
2018-01-06T08:11:06.659Z,5.70
2018-01-06T08:13:34.717Z,5.70
2018-01-06T08:16:02.793Z,5.90
2018-01-06T08:18:30.858Z,5.60
2018-01-06T08:20:58.935Z,5.60
2018-01-06T08:23:27.093Z,5.80
2018-01-06T08:25:55.234Z,6.20
2018-01-06T08:28:23.295Z,6.20
2018-01-06T08:30:51.965Z,6.30
2018-01-06T08:33:20.048Z,6.40
2018-01-06T08:35:48.118Z,6.10
2018-01-06T08:38:16.178Z,6.10
2018-01-06T08:40:44.241Z,5.80
2018-01-06T08:43:13.113Z,6.30
2018-01-06T08:45:41.171Z,6.20
2018-01-06T08:48:09.248Z,6.00
2018-01-06T08:50:37.324Z,6.00
2018-01-06T08:53:05.398Z,6.30
2018-01-06T08:55:34.262Z,6.30
2018-01-06T08:58:02.342Z,6.50
2018-01-06T09:00:30.412Z,6.20
2018-01-06T09:02:59.228Z,6.50
2018-01-06T09:05:28.098Z,6.70
2018-01-06T09:07:56.134Z,6.60
2018-01-06T09:10:24.194Z,6.60
2018-01-06T09:12:52.962Z,6.70
2018-01-06T09:15:21.038Z,7.20
2018-01-06T09:17:49.118Z,7.50
2018-01-06T09:20:17.194Z,6.80
2018-01-06T09:22:45.264Z,6.70
2018-01-06T09:25:14.093Z,6.80
2018-01-06T09:27:42.184Z,7.40
2018-01-06T09:30:11.055Z,7.50
2018-01-06T09:32:39.136Z,7.40
2018-01-06T09:35:07.989Z,8.10
2018-01-06T09:37:36.459Z,8.00
2018-01-06T09:40:04.527Z,7.60
2018-01-06T09:42:32.624Z,7.80
2018-01-06T09:45:00.691Z,7.90
2018-01-06T09:47:28.835Z,7.90
2018-01-06T09:49:57.296Z,7.70
2018-01-06T09:52:25.387Z,7.80
2018-01-06T09:54:53.482Z,7.40
2018-01-06T09:57:21.550Z,7.50
2018-01-06T09:59:49.630Z,7.80
2018-01-06T10:02:17.686Z,8.20
2018-01-06T10:04:45.753Z,8.00
2018-01-06T10:07:13.823Z,8.30
2018-01-06T10:09:41.894Z,8.30
2018-01-06T10:12:09.966Z,8.30
2018-01-06T10:14:38.030Z,8.10
2018-01-06T10:17:06.121Z,8.10
2018-01-06T10:19:34.191Z,8.30
2018-01-06T10:22:02.250Z,8.80
2018-01-06T10:24:30.322Z,9.00
2018-01-06T10:26:58.417Z,9.50
2018-01-06T10:29:26.496Z,9.50
2018-01-06T10:31:55.366Z,9.60
2018-01-06T10:34:23.444Z,9.60
2018-01-06T10:36:51.542Z,9.40
2018-01-06T10:39:19.584Z,9.30
2018-01-06T10:41:47.745Z,9.80
2018-01-06T10:44:15.833Z,9.80
2018-01-06T10:46:43.901Z,9.30
2018-01-06T10:49:12.620Z,8.80
2018-01-06T10:51:40.694Z,8.70
2018-01-06T10:54:08.748Z,9.10
2018-01-06T10:56:37.585Z,9.30
2018-01-06T10:59:06.606Z,9.50
2018-01-06T11:01:40.468Z,9.70
2018-01-06T11:04:08.513Z,9.70
2018-01-06T11:06:36.653Z,9.30
2018-01-06T11:09:04.744Z,9.20
2018-01-06T11:11:33.603Z,9.40
2018-01-06T11:14:01.673Z,9.80
2018-01-06T11:16:29.746Z,10.00
2018-01-06T11:18:57.918Z,10.30
2018-01-06T11:21:26.035Z,10.70
2018-01-06T11:23:54.918Z,10.30
2018-01-06T11:26:23.749Z,10.10
2018-01-06T11:28:51.826Z,9.70
2018-01-06T11:31:19.906Z,9.80
2018-01-06T11:33:47.979Z,9.90
2018-01-06T11:36:16.054Z,9.20
2018-01-06T11:38:44.220Z,9.60
2018-01-06T11:41:12.318Z,9.60
2018-01-06T11:43:40.375Z,9.50
2018-01-06T11:46:08.433Z,9.20
2018-01-06T11:48:36.517Z,9.10
2018-01-06T11:51:04.577Z,9.20
2018-01-06T11:53:32.656Z,9.20
2018-01-06T11:56:01.437Z,9.30
2018-01-06T11:58:29.502Z,9.60
2018-01-06T12:00:57.615Z,9.70
2018-01-06T12:03:26.474Z,10.10
2018-01-06T12:05:54.633Z,9.90
2018-01-06T12:08:22.708Z,10.00
2018-01-06T12:10:50.778Z,9.80
2018-01-06T12:13:18.843Z,9.70
2018-01-06T12:15:47.227Z,9.50
2018-01-06T12:18:15.300Z,9.60
2018-01-06T12:20:43.435Z,9.50
2018-01-06T12:23:11.494Z,9.80
2018-01-06T12:25:39.606Z,10.10
2018-01-06T12:28:07.686Z,10.10
2018-01-06T12:30:35.845Z,9.80
2018-01-06T12:33:03.918Z,10.80
2018-01-06T12:35:32.000Z,10.60
2018-01-06T12:38:00.166Z,10.70
2018-01-06T12:40:28.253Z,10.40
2018-01-06T12:42:56.329Z,10.10
2018-01-06T12:45:24.411Z,10.10
2018-01-06T12:47:53.266Z,10.40
2018-01-06T12:50:21.341Z,11.20
2018-01-06T12:52:49.418Z,11.00
2018-01-06T12:55:17.489Z,10.90
2018-01-06T12:57:45.561Z,10.60
2018-01-06T13:00:13.632Z,11.30
2018-01-06T13:02:41.706Z,11.80
2018-01-06T13:05:10.071Z,11.60
2018-01-06T13:07:38.250Z,11.40
2018-01-06T13:10:06.910Z,11.80
2018-01-06T13:12:34.995Z,12.10
2018-01-06T13:15:03.061Z,12.10
2018-01-06T13:17:31.152Z,11.70
2018-01-06T13:19:59.221Z,11.50
2018-01-06T13:22:27.302Z,11.20
2018-01-06T13:24:56.148Z,10.70
2018-01-06T13:27:24.213Z,9.80
2018-01-06T13:29:52.290Z,10.30
2018-01-06T13:32:20.742Z,10.10
2018-01-06T13:34:48.812Z,9.90
2018-01-06T13:37:16.941Z,10.50
2018-01-06T13:39:44.960Z,10.70
2018-01-06T13:42:13.061Z,11.10
2018-01-06T13:44:41.153Z,11.20
2018-01-06T13:47:09.217Z,11.30
2018-01-06T13:49:37.313Z,10.80
2018-01-06T13:52:06.179Z,10.70
2018-01-06T13:54:34.418Z,10.80
2018-01-06T13:57:02.503Z,10.70
2018-01-06T13:59:30.573Z,10.50
2018-01-06T14:01:58.655Z,10.60
2018-01-06T14:04:26.775Z,10.20
2018-01-06T14:06:54.867Z,10.10
2018-01-06T14:09:22.934Z,10.50
2018-01-06T14:11:51.060Z,10.40
2018-01-06T14:14:19.145Z,10.10
